Time;durP1;ratioP1;P1;durP2;ratioP2;P2;SDS_P1;SDS_P2;PMS_P1;PMS_P2;Temp;Humidity;BMP_temperature;BMP_pressure;BME280_temperature;BME280_humidity;BME280_pressure;Samples;Min_cycle;Max_cycle;Signal;HPM_P1;HPM_P2
2023/03/14 00:02:24;;;;;;;1.20;1.02;;;;;;;;;;5072402;28;20216;-86
2023/03/14 00:04:54;;;;;;;1.00;1.00;;;;;;;;;;5083353;28;20252;-85
2023/03/14 00:07:24;;;;;;;1.58;1.45;;;;;;;;;;5083485;28;20264;-87
2023/03/14 00:09:53;;;;;;;0.73;0.73;;;;;;;;;;5084101;28;20225;-85
2023/03/14 00:12:20;;;;;;;1.70;1.60;;;;;;;;;;5082731;28;20692;-86
2023/03/14 00:14:48;;;;;;;2.20;0.98;;;;;;;;;;5081425;28;20627;-86
2023/03/14 00:17:15;;;;;;;1.00;1.00;;;;;;;;;;5081292;28;20292;-88
2023/03/14 00:19:43;;;;;;;1.67;1.38;;;;;;;;;;5081873;28;20245;-87
2023/03/14 00:22:10;;;;;;;0.85;0.73;;;;;;;;;;5082870;28;20220;-87
2023/03/14 00:24:38;;;;;;;0.70;0.70;;;;;;;;;;5083330;28;20196;-86
2023/03/14 00:27:07;;;;;;;1.45;1.35;;;;;;;;;;5082373;28;20243;-86
2023/03/14 00:29:35;;;;;;;2.20;1.25;;;;;;;;;;5070546;28;20264;-86
2023/03/14 00:32:03;;;;;;;0.80;0.80;;;;;;;;;;5061874;28;20252;-86
2023/03/14 00:34:30;;;;;;;0.80;0.80;;;;;;;;;;5062853;28;20237;-85
2023/03/14 00:36:58;;;;;;;1.67;1.00;;;;;;;;;;5064278;28;20245;-86
2023/03/14 00:39:25;;;;;;;0.70;0.70;;;;;;;;;;5061408;28;20241;-86
2023/03/14 00:41:53;;;;;;;1.05;1.00;;;;;;;;;;5061885;28;20221;-86
2023/03/14 00:44:22;;;;;;;1.00;1.00;;;;;;;;;;5061925;28;20590;-85
2023/03/14 00:46:49;;;;;;;1.20;1.10;;;;;;;;;;5061567;28;20243;-87
2023/03/14 00:49:17;;;;;;;0.80;0.80;;;;;;;;;;5062167;28;20228;-85
2023/03/14 00:51:44;;;;;;;1.33;1.23;;;;;;;;;;5062023;28;20713;-86
2023/03/14 00:54:12;;;;;;;1.10;1.00;;;;;;;;;;5062486;28;20689;-87
2023/03/14 00:56:39;;;;;;;0.98;0.98;;;;;;;;;;5062447;28;20205;-85
2023/03/14 00:59:06;;;;;;;1.48;1.38;;;;;;;;;;5069461;28;20252;-85
2023/03/14 01:01:35;;;;;;;0.80;0.80;;;;;;;;;;5083898;28;20239;-85
2023/03/14 01:04:03;;;;;;;0.90;0.90;;;;;;;;;;5083472;28;20248;-85
2023/03/14 01:06:31;;;;;;;1.10;1.00;;;;;;;;;;5082827;28;20188;-86
2023/03/14 01:08:59;;;;;;;4.05;1.05;;;;;;;;;;5081733;28;20288;-86
2023/03/14 01:11:29;;;;;;;1.48;0.70;;;;;;;;;;5083054;28;20228;-85
2023/03/14 01:13:58;;;;;;;2.80;0.82;;;;;;;;;;5082580;28;20260;-86
2023/03/14 01:16:28;;;;;;;0.85;0.85;;;;;;;;;;5081090;28;20218;-85
2023/03/14 01:18:56;;;;;;;0.98;0.85;;;;;;;;;;5081712;28;20691;-86
2023/03/14 01:21:27;;;;;;;1.00;0.88;;;;;;;;;;5082234;28;20236;-86
2023/03/14 01:23:57;;;;;;;1.70;0.90;;;;;;;;;;5082294;28;20698;-87
2023/03/14 01:26:27;;;;;;;0.70;0.70;;;;;;;;;;5082098;28;20272;-87
2023/03/14 01:28:57;;;;;;;0.70;0.70;;;;;;;;;;5081226;28;20296;-86
2023/03/14 01:31:26;;;;;;;1.05;1.00;;;;;;;;;;5084809;28;20219;-86
2023/03/14 01:33:54;;;;;;;2.15;0.90;;;;;;;;;;5085070;28;20252;-86
2023/03/14 01:36:23;;;;;;;1.40;0.82;;;;;;;;;;5085423;28;20203;-86
2023/03/14 01:38:50;;;;;;;1.10;1.00;;;;;;;;;;5083606;28;20260;-86
2023/03/14 01:41:21;;;;;;;0.80;0.80;;;;;;;;;;5083020;28;20703;-86
2023/03/14 01:43:49;;;;;;;0.93;0.80;;;;;;;;;;5084636;28;20287;-85
2023/03/14 01:46:27;;;;;;;0.80;0.80;;;;;;;;;;5084659;28;20272;-87
2023/03/14 01:49:02;;;;;;;0.85;0.80;;;;;;;;;;5083862;28;20303;-86
2023/03/14 01:51:36;;;;;;;1.10;1.00;;;;;;;;;;5083947;28;20181;-86
2023/03/14 01:54:13;;;;;;;1.00;1.00;;;;;;;;;;5084485;28;20289;-86
2023/03/14 01:56:42;;;;;;;0.90;0.90;;;;;;;;;;5084929;28;20692;-86
2023/03/14 01:59:10;;;;;;;0.90;0.90;;;;;;;;;;5084231;28;20316;-85
2023/03/14 02:01:38;;;;;;;1.83;0.85;;;;;;;;;;5084664;28;20235;-86
2023/03/14 02:04:07;;;;;;;0.90;0.90;;;;;;;;;;5084947;28;20208;-85
2023/03/14 02:06:46;;;;;;;1.42;1.13;;;;;;;;;;5085037;28;20292;-85
2023/03/14 02:09:13;;;;;;;1.17;1.10;;;;;;;;;;5083748;28;20255;-86
2023/03/14 02:11:41;;;;;;;1.00;1.00;;;;;;;;;;5083501;28;20201;-86
2023/03/14 02:14:10;;;;;;;0.95;0.95;;;;;;;;;;5082595;28;20253;-86
2023/03/14 02:16:37;;;;;;;1.00;1.00;;;;;;;;;;5083140;28;20670;-84
2023/03/14 02:19:05;;;;;;;1.10;1.00;;;;;;;;;;5082607;28;20303;-85
2023/03/14 02:21:46;;;;;;;2.42;1.73;;;;;;;;;;5084962;28;20201;-85
2023/03/14 02:24:18;;;;;;;1.25;0.93;;;;;;;;;;5084257;28;20636;-85
2023/03/14 02:27:06;;;;;;;1.48;1.10;;;;;;;;;;5084328;28;20382;-85
2023/03/14 02:29:36;;;;;;;1.92;1.33;;;;;;;;;;5084074;28;20653;-85
2023/03/14 02:32:04;;;;;;;0.90;0.90;;;;;;;;;;5081361;28;20295;-85
2023/03/14 02:34:32;;;;;;;3.70;1.70;;;;;;;;;;5075314;28;20221;-85
2023/03/14 02:37:00;;;;;;;2.72;1.77;;;;;;;;;;5075599;28;20645;-85
2023/03/14 02:39:34;;;;;;;1.33;1.23;;;;;;;;;;5074859;28;20235;-84
2023/03/14 02:42:01;;;;;;;0.90;0.90;;;;;;;;;;5073926;28;20199;-83
2023/03/14 02:44:31;;;;;;;1.08;1.08;;;;;;;;;;5075298;28;20316;-84
2023/03/14 02:46:58;;;;;;;1.33;1.20;;;;;;;;;;5075462;28;20201;-85
2023/03/14 02:49:27;;;;;;;1.85;1.30;;;;;;;;;;5074863;28;20284;-86
2023/03/14 02:51:54;;;;;;;1.00;1.00;;;;;;;;;;5074988;28;20754;-84
2023/03/14 02:54:22;;;;;;;1.05;1.00;;;;;;;;;;5075039;28;20312;-84
2023/03/14 02:56:50;;;;;;;3.33;1.23;;;;;;;;;;5075306;28;20646;-85
2023/03/14 02:59:17;;;;;;;1.85;1.17;;;;;;;;;;5074292;28;20312;-85
2023/03/14 03:01:46;;;;;;;1.20;1.13;;;;;;;;;;5074766;28;20299;-84
2023/03/14 03:04:13;;;;;;;1.98;1.10;;;;;;;;;;5074375;28;20201;-83
2023/03/14 03:06:42;;;;;;;1.00;1.00;;;;;;;;;;5074642;28;20197;-84
2023/03/14 03:09:09;;;;;;;2.63;1.35;;;;;;;;;;5074472;28;20251;-85
2023/03/14 03:11:37;;;;;;;1.50;1.35;;;;;;;;;;5074581;28;20691;-85
2023/03/14 03:14:04;;;;;;;2.15;1.20;;;;;;;;;;5074660;28;20587;-84
2023/03/14 03:16:32;;;;;;;1.15;1.05;;;;;;;;;;5074133;28;20205;-84
2023/03/14 03:19:01;;;;;;;0.80;0.80;;;;;;;;;;5073854;28;20636;-86
2023/03/14 03:21:28;;;;;;;1.05;0.80;;;;;;;;;;5074575;28;20721;-84
2023/03/14 03:23:56;;;;;;;2.35;1.10;;;;;;;;;;5074536;28;20649;-85
2023/03/14 03:26:23;;;;;;;1.42;1.33;;;;;;;;;;5074284;28;20300;-85
2023/03/14 03:28:52;;;;;;;1.45;1.08;;;;;;;;;;5073540;28;20257;-83
2023/03/14 03:31:20;;;;;;;2.58;1.35;;;;;;;;;;5074344;28;20287;-84
2023/03/14 03:33:47;;;;;;;1.73;1.33;;;;;;;;;;5074354;28;20229;-84
2023/03/14 03:36:16;;;;;;;1.02;0.98;;;;;;;;;;5073907;28;20283;-83
2023/03/14 03:38:43;;;;;;;0.95;0.95;;;;;;;;;;5073394;28;20702;-84
2023/03/14 03:41:11;;;;;;;1.60;1.50;;;;;;;;;;5073902;28;20291;-83
2023/03/14 03:43:39;;;;;;;1.20;1.10;;;;;;;;;;5073947;28;20225;-84
2023/03/14 03:46:07;;;;;;;1.35;1.13;;;;;;;;;;5073905;28;20288;-84
2023/03/14 03:48:35;;;;;;;1.17;1.00;;;;;;;;;;5073310;28;20220;-82
2023/03/14 03:51:03;;;;;;;0.88;0.88;;;;;;;;;;5073966;28;20203;-85
2023/03/14 03:53:32;;;;;;;1.00;0.90;;;;;;;;;;5074051;28;20231;-84
2023/03/14 03:56:00;;;;;;;1.60;1.30;;;;;;;;;;5074187;28;20723;-85
2023/03/14 03:58:27;;;;;;;2.28;1.02;;;;;;;;;;5073607;28;20315;-84
2023/03/14 04:00:55;;;;;;;1.10;1.10;;;;;;;;;;5073435;28;20296;-85
2023/03/14 04:03:22;;;;;;;1.00;1.00;;;;;;;;;;5074067;28;20227;-84
2023/03/14 04:06:00;;;;;;;6.68;2.03;;;;;;;;;;5073705;28;20240;-85
2023/03/14 04:08:28;;;;;;;1.33;0.73;;;;;;;;;;5073089;28;20308;-84
2023/03/14 04:10:59;;;;;;;0.80;0.80;;;;;;;;;;5073445;28;20200;-84
2023/03/14 04:13:27;;;;;;;1.02;0.70;;;;;;;;;;5074000;28;20209;-84
2023/03/14 04:15:55;;;;;;;0.73;0.70;;;;;;;;;;5074055;28;20197;-84
2023/03/14 04:18:24;;;;;;;0.50;0.50;;;;;;;;;;5073348;28;20761;-85
2023/03/14 04:20:53;;;;;;;0.60;0.60;;;;;;;;;;5073284;28;20207;-85
2023/03/14 04:23:23;;;;;;;0.90;0.90;;;;;;;;;;5073708;28;20201;-84
2023/03/14 04:25:51;;;;;;;1.35;1.25;;;;;;;;;;5073562;28;20209;-84
2023/03/14 04:28:20;;;;;;;1.40;0.85;;;;;;;;;;5073089;28;20641;-85
2023/03/14 04:30:48;;;;;;;0.65;0.65;;;;;;;;;;5072716;28;20201;-83
2023/03/14 04:33:17;;;;;;;3.90;1.15;;;;;;;;;;5072567;28;20662;-85
2023/03/14 04:35:44;;;;;;;1.88;0.98;;;;;;;;;;5073658;28;20248;-83
2023/03/14 04:38:12;;;;;;;1.80;1.10;;;;;;;;;;5072937;28;20256;-83
2023/03/14 04:40:40;;;;;;;2.53;1.13;;;;;;;;;;5072916;28;20200;-85
2023/03/14 04:43:09;;;;;;;1.77;0.93;;;;;;;;;;5073452;28;20584;-84
2023/03/14 04:45:38;;;;;;;0.82;0.82;;;;;;;;;;5073175;28;20235;-84
2023/03/14 04:48:07;;;;;;;1.75;1.10;;;;;;;;;;5071294;28;20248;-85
2023/03/14 04:50:34;;;;;;;2.60;1.00;;;;;;;;;;5072134;28;20197;-85
2023/03/14 04:53:13;;;;;;;2.45;1.30;;;;;;;;;;5073166;28;20658;-85
2023/03/14 04:55:41;;;;;;;1.55;1.30;;;;;;;;;;5071545;28;20263;-84
2023/03/14 04:58:09;;;;;;;1.27;1.08;;;;;;;;;;5072936;28;20243;-83
2023/03/14 05:00:38;;;;;;;1.88;1.20;;;;;;;;;;5072432;28;20291;-84
2023/03/14 05:03:08;;;;;;;3.42;1.73;;;;;;;;;;5073088;28;20650;-85
2023/03/14 05:05:36;;;;;;;1.35;1.23;;;;;;;;;;5072079;28;20193;-85
2023/03/14 05:08:04;;;;;;;1.30;1.10;;;;;;;;;;5071252;28;20660;-84
2023/03/14 05:10:32;;;;;;;1.63;1.27;;;;;;;;;;5072293;28;20579;-85
2023/03/14 05:13:02;;;;;;;2.55;1.20;;;;;;;;;;5073034;28;20284;-85
2023/03/14 05:15:29;;;;;;;1.20;1.10;;;;;;;;;;5074339;28;20201;-85
2023/03/14 05:17:59;;;;;;;2.20;1.10;;;;;;;;;;5072684;28;20780;-84
2023/03/14 05:20:26;;;;;;;1.90;1.20;;;;;;;;;;5073623;28;20228;-84
2023/03/14 05:22:54;;;;;;;1.33;1.08;;;;;;;;;;5072992;28;20236;-85
2023/03/14 05:25:22;;;;;;;3.80;1.50;;;;;;;;;;5073078;28;20207;-83
2023/03/14 05:27:49;;;;;;;3.47;1.10;;;;;;;;;;5071450;28;20197;-83
2023/03/14 05:30:19;;;;;;;3.03;1.23;;;;;;;;;;5072222;28;20588;-83
2023/03/14 05:32:48;;;;;;;2.20;1.13;;;;;;;;;;5059914;28;20201;-83
2023/03/14 05:35:17;;;;;;;2.78;1.65;;;;;;;;;;5052232;28;20236;-84
2023/03/14 05:37:45;;;;;;;2.15;1.40;;;;;;;;;;5051504;28;20202;-84
2023/03/14 05:40:14;;;;;;;2.95;1.10;;;;;;;;;;5052454;28;20289;-84
2023/03/14 05:42:41;;;;;;;1.35;1.00;;;;;;;;;;5053342;28;20701;-85
2023/03/14 05:45:11;;;;;;;0.73;0.73;;;;;;;;;;5054754;28;20244;-85
2023/03/14 05:47:38;;;;;;;3.90;1.20;;;;;;;;;;5054224;28;20204;-84
2023/03/14 05:50:08;;;;;;;4.55;1.83;;;;;;;;;;5052684;28;20208;-84
2023/03/14 05:52:37;;;;;;;1.33;1.20;;;;;;;;;;5054310;28;20272;-84
2023/03/14 05:55:05;;;;;;;2.90;1.00;;;;;;;;;;5051199;28;20312;-84
2023/03/14 05:57:36;;;;;;;1.65;1.23;;;;;;;;;;5052562;28;20208;-86
2023/03/14 06:00:05;;;;;;;3.05;1.20;;;;;;;;;;5052569;28;20208;-85
2023/03/14 06:02:33;;;;;;;1.75;1.00;;;;;;;;;;5061596;28;20248;-85
2023/03/14 06:05:02;;;;;;;1.00;0.95;;;;;;;;;;5071890;28;20284;-85
2023/03/14 06:07:29;;;;;;;1.33;1.02;;;;;;;;;;5071377;28;20201;-85
2023/03/14 06:09:59;;;;;;;2.13;1.13;;;;;;;;;;5070707;28;20294;-84
2023/03/14 06:12:26;;;;;;;1.42;1.00;;;;;;;;;;5071717;28;20201;-84
2023/03/14 06:14:56;;;;;;;1.23;1.10;;;;;;;;;;5072153;28;20217;-85
2023/03/14 06:17:24;;;;;;;2.38;1.20;;;;;;;;;;5075589;28;20288;-84
2023/03/14 06:19:51;;;;;;;1.02;0.90;;;;;;;;;;5075002;28;20222;-86
2023/03/14 06:22:19;;;;;;;1.20;1.10;;;;;;;;;;5075563;28;20232;-84
2023/03/14 06:24:47;;;;;;;1.60;1.33;;;;;;;;;;5075824;28;20201;-86
2023/03/14 06:27:16;;;;;;;3.80;1.42;;;;;;;;;;5075677;28;20205;-83
2023/03/14 06:29:44;;;;;;;1.05;0.90;;;;;;;;;;5074786;28;20227;-86
2023/03/14 06:32:12;;;;;;;1.85;1.20;;;;;;;;;;5068926;28;20233;-85
2023/03/14 06:34:40;;;;;;;2.58;1.05;;;;;;;;;;5054084;28;20201;-85
2023/03/14 06:37:08;;;;;;;1.10;1.00;;;;;;;;;;5055483;28;20218;-85
2023/03/14 06:39:38;;;;;;;3.45;1.08;;;;;;;;;;5054518;28;20217;-84
2023/03/14 06:42:06;;;;;;;1.48;1.38;;;;;;;;;;5054507;28;20659;-83
2023/03/14 06:44:36;;;;;;;3.85;1.50;;;;;;;;;;5055139;28;20202;-83
2023/03/14 06:47:04;;;;;;;1.60;1.50;;;;;;;;;;5055563;28;20631;-85
2023/03/14 06:49:32;;;;;;;1.90;1.73;;;;;;;;;;5054490;28;20252;-86
2023/03/14 06:52:01;;;;;;;1.23;0.88;;;;;;;;;;5055636;28;20248;-86
2023/03/14 06:54:28;;;;;;;2.03;1.10;;;;;;;;;;5056046;28;20280;-86
2023/03/14 06:56:56;;;;;;;0.90;0.90;;;;;;;;;;5055575;28;20240;-87
2023/03/14 06:59:24;;;;;;;3.75;1.13;;;;;;;;;;5054248;28;20232;-86
2023/03/14 07:01:56;;;;;;;1.35;1.20;;;;;;;;;;5055008;28;20292;-86
2023/03/14 07:04:23;;;;;;;2.42;1.00;;;;;;;;;;5055420;28;20193;-83
2023/03/14 07:06:51;;;;;;;2.13;1.17;;;;;;;;;;5054025;28;20289;-83
2023/03/14 07:09:20;;;;;;;1.30;1.15;;;;;;;;;;5053955;28;20217;-84
2023/03/14 07:11:49;;;;;;;1.77;1.63;;;;;;;;;;5054016;28;20201;-84
2023/03/14 07:14:16;;;;;;;2.22;1.30;;;;;;;;;;5054399;28;20204;-84
2023/03/14 07:16:46;;;;;;;1.88;1.23;;;;;;;;;;5054733;28;20321;-83
2023/03/14 07:19:19;;;;;;;1.92;1.15;;;;;;;;;;5053903;28;20221;-85
2023/03/14 07:21:46;;;;;;;1.80;1.08;;;;;;;;;;5054584;28;20282;-84
2023/03/14 07:24:14;;;;;;;1.15;1.00;;;;;;;;;;5054541;28;20206;-84
2023/03/14 07:26:42;;;;;;;2.08;0.80;;;;;;;;;;5054292;28;20201;-84
2023/03/14 07:29:12;;;;;;;0.88;0.88;;;;;;;;;;5061083;28;20229;-84
2023/03/14 07:31:41;;;;;;;1.63;1.05;;;;;;;;;;5074150;28;20677;-83
2023/03/14 07:34:09;;;;;;;1.75;1.20;;;;;;;;;;5073884;28;20207;-83
2023/03/14 07:36:38;;;;;;;0.90;0.90;;;;;;;;;;5073633;28;20220;-84
2023/03/14 07:39:06;;;;;;;0.90;0.90;;;;;;;;;;5073402;28;20653;-83
2023/03/14 07:41:34;;;;;;;1.75;1.10;;;;;;;;;;5072850;28;20240;-84
2023/03/14 07:44:02;;;;;;;2.00;1.00;;;;;;;;;;5073345;28;20201;-83
2023/03/14 07:46:30;;;;;;;1.23;0.85;;;;;;;;;;5074094;28;20293;-84
2023/03/14 07:48:58;;;;;;;1.15;1.15;;;;;;;;;;5072635;28;20271;-83
2023/03/14 07:51:26;;;;;;;0.80;0.80;;;;;;;;;;5073733;28;20304;-82
2023/03/14 07:53:55;;;;;;;0.85;0.68;;;;;;;;;;5073828;28;20203;-83
2023/03/14 07:56:27;;;;;;;0.50;0.50;;;;;;;;;;5073741;28;20217;-84
2023/03/14 07:58:55;;;;;;;0.77;0.77;;;;;;;;;;5074119;28;20585;-84
2023/03/14 08:01:23;;;;;;;0.63;0.63;;;;;;;;;;5073746;28;20255;-85
2023/03/14 08:03:50;;;;;;;0.60;0.60;;;;;;;;;;5053573;28;20198;-83
2023/03/14 08:06:18;;;;;;;0.60;0.60;;;;;;;;;;5053580;28;20261;-84
2023/03/14 08:08:47;;;;;;;0.70;0.70;;;;;;;;;;5052224;28;20228;-84
2023/03/14 08:11:16;;;;;;;1.08;0.98;;;;;;;;;;5053660;28;20227;-82
2023/03/14 08:13:49;;;;;;;0.80;0.60;;;;;;;;;;5054175;28;20355;-85
2023/03/14 08:16:17;;;;;;;0.55;0.52;;;;;;;;;;5053265;28;20301;-84
2023/03/14 08:18:45;;;;;;;0.40;0.40;;;;;;;;;;5050516;28;20710;-82
2023/03/14 08:21:15;;;;;;;0.88;0.88;;;;;;;;;;5053097;28;20293;-84
2023/03/14 08:23:43;;;;;;;1.02;0.80;;;;;;;;;;5052894;28;20288;-83
2023/03/14 08:26:11;;;;;;;0.77;0.77;;;;;;;;;;5053023;28;20651;-84
2023/03/14 08:28:41;;;;;;;1.52;0.60;;;;;;;;;;5052794;28;20243;-85
2023/03/14 08:31:09;;;;;;;2.63;0.73;;;;;;;;;;5052953;28;20584;-84
2023/03/14 08:33:38;;;;;;;0.75;0.75;;;;;;;;;;5072153;28;20209;-83
2023/03/14 08:36:08;;;;;;;0.63;0.63;;;;;;;;;;5072979;28;20638;-83
2023/03/14 08:38:36;;;;;;;0.60;0.60;;;;;;;;;;5056549;28;20221;-83
2023/03/14 08:41:05;;;;;;;0.60;0.60;;;;;;;;;;5051404;28;20201;-83
2023/03/14 08:43:33;;;;;;;3.45;1.17;;;;;;;;;;5053150;28;20194;-85
2023/03/14 08:46:03;;;;;;;0.50;0.50;;;;;;;;;;5052513;28;20636;-83
2023/03/14 08:48:31;;;;;;;0.40;0.40;;;;;;;;;;5052057;28;20225;-85
2023/03/14 08:51:06;;;;;;;1.75;0.52;;;;;;;;;;5053148;28;20205;-83
2023/03/14 08:53:34;;;;;;;0.40;0.40;;;;;;;;;;5053024;28;20635;-84
2023/03/14 08:56:01;;;;;;;0.40;0.40;;;;;;;;;;5035249;28;20237;-84
2023/03/14 08:58:29;;;;;;;0.68;0.40;;;;;;;;;;5052332;28;20232;-83
2023/03/14 09:00:57;;;;;;;0.40;0.40;;;;;;;;;;5071856;28;20200;-84
2023/03/14 09:03:26;;;;;;;0.70;0.70;;;;;;;;;;5072573;28;20340;-83
2023/03/14 09:05:54;;;;;;;0.40;0.40;;;;;;;;;;5072345;28;20204;-84
2023/03/14 09:08:22;;;;;;;0.47;0.38;;;;;;;;;;5071891;28;20307;-84
2023/03/14 09:10:53;;;;;;;0.43;0.43;;;;;;;;;;5071379;28;20258;-86
2023/03/14 09:13:20;;;;;;;0.35;0.25;;;;;;;;;;5073855;28;20682;-86
2023/03/14 09:15:52;;;;;;;0.52;0.52;;;;;;;;;;5073240;28;20205;-86
2023/03/14 09:18:20;;;;;;;0.50;0.50;;;;;;;;;;5072432;28;20293;-84
2023/03/14 09:20:51;;;;;;;0.60;0.40;;;;;;;;;;5071928;28;20660;-86
2023/03/14 09:23:19;;;;;;;0.70;0.50;;;;;;;;;;5072618;28;20269;-84
2023/03/14 09:25:46;;;;;;;0.47;0.43;;;;;;;;;;5072824;28;20208;-84
2023/03/14 09:28:14;;;;;;;0.30;0.30;;;;;;;;;;5073014;28;20243;-84
2023/03/14 09:30:43;;;;;;;0.40;0.40;;;;;;;;;;5071743;28;20701;-86
2023/03/14 09:33:11;;;;;;;0.60;0.60;;;;;;;;;;5072975;28;20701;-85
2023/03/14 09:35:40;;;;;;;1.35;0.45;;;;;;;;;;5071342;28;20283;-85
2023/03/14 09:38:09;;;;;;;1.38;0.40;;;;;;;;;;5072706;28;20567;-85
2023/03/14 09:40:38;;;;;;;0.70;0.70;;;;;;;;;;5072208;28;20615;-85
2023/03/14 09:43:09;;;;;;;0.38;0.38;;;;;;;;;;5072215;28;20201;-86
2023/03/14 09:45:40;;;;;;;0.43;0.30;;;;;;;;;;5072829;28;20713;-84
2023/03/14 09:48:16;;;;;;;0.47;0.38;;;;;;;;;;5071359;28;20271;-85
2023/03/14 09:50:47;;;;;;;0.98;0.40;;;;;;;;;;5072970;28;20192;-84
2023/03/14 09:53:21;;;;;;;0.40;0.40;;;;;;;;;;5075019;28;20583;-85
2023/03/14 09:55:52;;;;;;;0.30;0.30;;;;;;;;;;5076708;28;20205;-84
2023/03/14 09:58:23;;;;;;;0.50;0.50;;;;;;;;;;5075032;28;20225;-84
2023/03/14 10:00:51;;;;;;;0.45;0.45;;;;;;;;;;5076621;28;20258;-85
2023/03/14 10:03:27;;;;;;;0.43;0.40;;;;;;;;;;5076107;28;20594;-86
2023/03/14 10:05:56;;;;;;;0.50;0.50;;;;;;;;;;5075944;28;20279;-85
2023/03/14 10:08:27;;;;;;;0.50;0.50;;;;;;;;;;5075545;28;20256;-84
2023/03/14 10:10:59;;;;;;;3.30;0.63;;;;;;;;;;5075765;28;20193;-85
2023/03/14 10:13:29;;;;;;;0.50;0.50;;;;;;;;;;5076360;28;20595;-84
2023/03/14 10:16:02;;;;;;;0.82;0.82;;;;;;;;;;5076343;28;20204;-85
2023/03/14 10:18:34;;;;;;;0.50;0.50;;;;;;;;;;5074096;28;20290;-85
2023/03/14 10:21:08;;;;;;;0.60;0.60;;;;;;;;;;5075812;28;20258;-85
2023/03/14 10:23:39;;;;;;;0.60;0.60;;;;;;;;;;5074709;28;20213;-85
2023/03/14 10:26:15;;;;;;;2.70;0.80;;;;;;;;;;5075587;28;20729;-85
2023/03/14 10:28:47;;;;;;;0.65;0.65;;;;;;;;;;5074296;28;20228;-84
2023/03/14 10:31:16;;;;;;;1.02;0.93;;;;;;;;;;5075642;28;20713;-85
2023/03/14 10:33:46;;;;;;;0.75;0.60;;;;;;;;;;5074722;28;20761;-83
2023/03/14 10:36:21;;;;;;;0.50;0.50;;;;;;;;;;5075618;28;20646;-84
2023/03/14 10:38:51;;;;;;;0.60;0.60;;;;;;;;;;5074675;28;20307;-84
2023/03/14 10:41:24;;;;;;;0.68;0.60;;;;;;;;;;5073672;28;20200;-84
2023/03/14 10:43:54;;;;;;;1.05;0.80;;;;;;;;;;5075876;28;20189;-83
2023/03/14 10:46:23;;;;;;;1.23;1.13;;;;;;;;;;5073929;28;20675;-85
2023/03/14 10:48:50;;;;;;;1.15;0.73;;;;;;;;;;5074604;28;20227;-83
2023/03/14 10:51:25;;;;;;;0.60;0.60;;;;;;;;;;5075268;28;20208;-84
2023/03/14 10:54:04;;;;;;;1.05;0.68;;;;;;;;;;5074398;28;20547;-84
2023/03/14 10:56:40;;;;;;;0.73;0.73;;;;;;;;;;5075470;28;20189;-84
2023/03/14 10:59:14;;;;;;;1.20;1.00;;;;;;;;;;5074320;28;20256;-84
2023/03/14 11:01:45;;;;;;;0.50;0.50;;;;;;;;;;5074173;28;20204;-83
2023/03/14 11:04:25;;;;;;;0.68;0.60;;;;;;;;;;5064402;28;20193;-84
2023/03/14 11:07:00;;;;;;;0.60;0.60;;;;;;;;;;5053234;28;20205;-84
2023/03/14 11:09:34;;;;;;;1.40;0.68;;;;;;;;;;5053209;28;20300;-84
2023/03/14 11:12:14;;;;;;;0.57;0.45;;;;;;;;;;5054574;28;20220;-84
2023/03/14 11:14:47;;;;;;;0.50;0.50;;;;;;;;;;5055007;28;20186;-84
2023/03/14 11:17:20;;;;;;;0.38;0.38;;;;;;;;;;5054106;28;20201;-83
2023/03/14 11:20:15;;;;;;;0.40;0.40;;;;;;;;;;5053966;28;20662;-84
2023/03/14 11:22:47;;;;;;;0.30;0.30;;;;;;;;;;5055000;28;20186;-84
2023/03/14 11:25:26;;;;;;;0.35;0.35;;;;;;;;;;5054728;28;20209;-84
2023/03/14 11:28:01;;;;;;;0.50;0.50;;;;;;;;;;5054544;28;20192;-82
2023/03/14 11:30:37;;;;;;;0.47;0.47;;;;;;;;;;5052549;28;20196;-84
2023/03/14 11:33:14;;;;;;;0.30;0.30;;;;;;;;;;5054141;28;20174;-83
2023/03/14 11:35:48;;;;;;;0.40;0.40;;;;;;;;;;5052787;28;20202;-83
2023/03/14 11:38:28;;;;;;;0.57;0.57;;;;;;;;;;5054379;28;20253;-83
2023/03/14 11:40:59;;;;;;;0.30;0.30;;;;;;;;;;5054721;28;20187;-84
2023/03/14 11:43:32;;;;;;;0.40;0.40;;;;;;;;;;5054221;28;20204;-82
2023/03/14 11:46:06;;;;;;;0.40;0.40;;;;;;;;;;5055555;28;20182;-83
2023/03/14 11:48:42;;;;;;;1.65;0.50;;;;;;;;;;5053451;28;20217;-83
2023/03/14 11:51:17;;;;;;;0.30;0.30;;;;;;;;;;5054988;28;20211;-84
2023/03/14 11:53:51;;;;;;;0.43;0.43;;;;;;;;;;5055273;28;20188;-84
2023/03/14 11:56:28;;;;;;;0.30;0.30;;;;;;;;;;5055496;28;20276;-83
2023/03/14 11:59:01;;;;;;;0.52;0.50;;;;;;;;;;5059940;28;20311;-84
2023/03/14 12:01:45;;;;;;;0.45;0.45;;;;;;;;;;5075090;28;20181;-84
2023/03/14 12:04:17;;;;;;;0.40;0.40;;;;;;;;;;5073781;28;20291;-84
2023/03/14 12:06:50;;;;;;;0.63;0.63;;;;;;;;;;5073785;28;20211;-85
2023/03/14 12:09:19;;;;;;;0.40;0.40;;;;;;;;;;5073403;28;20220;-84
2023/03/14 12:11:52;;;;;;;0.63;0.63;;;;;;;;;;5073425;28;20587;-84
2023/03/14 12:14:25;;;;;;;0.63;0.60;;;;;;;;;;5073867;28;20191;-84
2023/03/14 12:16:59;;;;;;;2.53;0.90;;;;;;;;;;5073641;28;20192;-84
2023/03/14 12:19:36;;;;;;;0.82;0.82;;;;;;;;;;5072504;28;20234;-83
2023/03/14 12:22:20;;;;;;;0.88;0.88;;;;;;;;;;5073768;28;20185;-85
2023/03/14 12:24:53;;;;;;;0.40;0.40;;;;;;;;;;5073471;28;20271;-85
2023/03/14 12:27:49;;;;;;;0.30;0.30;;;;;;;;;;5072165;28;20287;-84
2023/03/14 12:30:30;;;;;;;0.85;0.85;;;;;;;;;;5072897;28;20205;-84
2023/03/14 12:33:31;;;;;;;0.40;0.40;;;;;;;;;;5074062;28;20205;-86
2023/03/14 12:36:19;;;;;;;0.38;0.38;;;;;;;;;;5073430;28;20200;-86
2023/03/14 12:39:05;;;;;;;0.60;0.40;;;;;;;;;;5073763;28;20233;-86
2023/03/14 12:41:39;;;;;;;0.47;0.47;;;;;;;;;;5073937;28;20204;-87
2023/03/14 12:44:46;;;;;;;0.65;0.65;;;;;;;;;;5073738;28;20549;-86
2023/03/14 12:47:55;;;;;;;0.52;0.52;;;;;;;;;;5073902;28;20185;-87
2023/03/14 12:50:29;;;;;;;0.40;0.40;;;;;;;;;;5072523;28;20204;-86
2023/03/14 12:53:27;;;;;;;0.63;0.60;;;;;;;;;;5072930;28;20210;-85
2023/03/14 12:56:04;;;;;;;0.60;0.60;;;;;;;;;;5074281;28;20204;-85
2023/03/14 12:58:35;;;;;;;0.50;0.50;;;;;;;;;;5072029;28;20217;-85
2023/03/14 13:01:07;;;;;;;0.50;0.50;;;;;;;;;;5073632;28;20646;-84
2023/03/14 13:03:47;;;;;;;0.30;0.30;;;;;;;;;;5055116;28;20289;-86
2023/03/14 13:06:15;;;;;;;0.30;0.30;;;;;;;;;;5053250;28;20196;-85
2023/03/14 13:08:44;;;;;;;0.25;0.25;;;;;;;;;;5053058;28;20312;-86
2023/03/14 13:11:16;;;;;;;0.50;0.50;;;;;;;;;;5035893;28;20288;-86
2023/03/14 13:13:51;;;;;;;0.38;0.38;;;;;;;;;;5053712;28;20182;-86
2023/03/14 13:16:23;;;;;;;0.50;0.50;;;;;;;;;;5053946;28;20264;-87
2023/03/14 13:19:00;;;;;;;0.70;0.70;;;;;;;;;;5053865;28;20225;-86
2023/03/14 13:21:29;;;;;;;1.77;1.45;;;;;;;;;;5054233;28;20209;-86
2023/03/14 13:24:02;;;;;;;2.90;2.13;;;;;;;;;;5053284;28;20223;-85
2023/03/14 13:26:36;;;;;;;1.40;1.30;;;;;;;;;;5055398;28;20216;-86
2023/03/14 13:29:15;;;;;;;6.57;3.75;;;;;;;;;;5057247;28;20304;-86
2023/03/14 13:31:49;;;;;;;4.32;2.58;;;;;;;;;;5059705;28;20205;-87
2023/03/14 13:34:17;;;;;;;3.63;2.63;;;;;;;;;;5077904;28;20658;-86
2023/03/14 13:36:48;;;;;;;1.88;1.67;;;;;;;;;;5076887;28;20197;-86
2023/03/14 13:39:24;;;;;;;3.25;2.05;;;;;;;;;;5075782;28;20229;-86
2023/03/14 13:41:53;;;;;;;0.75;0.75;;;;;;;;;;5076188;28;20250;-85
2023/03/14 13:44:27;;;;;;;0.80;0.80;;;;;;;;;;5076884;28;20227;-86
2023/03/14 13:46:59;;;;;;;0.50;0.50;;;;;;;;;;5076053;28;20188;-86
2023/03/14 13:49:28;;;;;;;0.90;0.90;;;;;;;;;;5076551;28;20225;-85
2023/03/14 13:51:56;;;;;;;3.58;3.28;;;;;;;;;;5076569;28;20229;-86
2023/03/14 13:54:24;;;;;;;3.33;2.47;;;;;;;;;;5076893;28;20284;-86
2023/03/14 13:57:01;;;;;;;3.80;3.45;;;;;;;;;;5077085;28;20197;-85
2023/03/14 13:59:31;;;;;;;9.23;2.60;;;;;;;;;;5076301;28;20228;-85
2023/03/14 14:02:05;;;;;;;1.65;1.30;;;;;;;;;;5076050;28;20203;-85
2023/03/14 14:04:36;;;;;;;1.27;1.08;;;;;;;;;;5075727;28;20190;-86
2023/03/14 14:07:09;;;;;;;1.92;1.63;;;;;;;;;;5075227;28;20248;-86
2023/03/14 14:09:42;;;;;;;4.38;2.20;;;;;;;;;;5075877;28;20213;-86
2023/03/14 14:12:14;;;;;;;2.63;1.55;;;;;;;;;;5075668;28;20573;-85
2023/03/14 14:14:46;;;;;;;3.05;1.63;;;;;;;;;;5075091;28;20200;-86
2023/03/14 14:17:19;;;;;;;3.15;1.50;;;;;;;;;;5075187;28;20208;-87
2023/03/14 14:19:48;;;;;;;3.13;1.20;;;;;;;;;;5075192;28;20315;-87
2023/03/14 14:22:17;;;;;;;2.30;1.25;;;;;;;;;;5075151;28;20201;-85
2023/03/14 14:24:44;;;;;;;6.90;1.88;;;;;;;;;;5075310;28;20223;-87
2023/03/14 14:27:17;;;;;;;4.93;2.25;;;;;;;;;;5075335;28;20215;-85
2023/03/14 14:29:46;;;;;;;5.28;2.05;;;;;;;;;;5075154;28;20214;-86
2023/03/14 14:32:17;;;;;;;2.65;1.80;;;;;;;;;;5069310;28;20202;-86
2023/03/14 14:34:49;;;;;;;4.72;4.10;;;;;;;;;;5059745;28;20182;-86
2023/03/14 14:37:21;;;;;;;9.10;4.70;;;;;;;;;;5059173;28;20210;-87
2023/03/14 14:39:50;;;;;;;3.65;3.17;;;;;;;;;;5059828;28;20326;-86
2023/03/14 14:42:21;;;;;;;3.47;2.55;;;;;;;;;;5059999;28;20208;-87
2023/03/14 14:44:51;;;;;;;6.10;3.05;;;;;;;;;;5060449;28;20188;-87
2023/03/14 14:47:23;;;;;;;3.35;3.05;;;;;;;;;;5059756;28;20206;-87
2023/03/14 14:49:52;;;;;;;4.30;2.85;;;;;;;;;;5058428;28;20236;-87
2023/03/14 14:52:31;;;;;;;3.45;2.92;;;;;;;;;;5060788;28;20292;-86
2023/03/14 14:55:02;;;;;;;3.20;2.85;;;;;;;;;;5060671;28;20305;-87
2023/03/14 14:57:37;;;;;;;3.63;1.98;;;;;;;;;;5059910;28;20785;-87
2023/03/14 15:00:13;;;;;;;7.20;5.40;;;;;;;;;;5074678;28;20248;-86
2023/03/14 15:02:46;;;;;;;11.20;7.00;;;;;;;;;;5081355;28;20200;-87
2023/03/14 15:05:16;;;;;;;6.25;3.03;;;;;;;;;;5079352;28;20888;-86